Time;durP1;ratioP1;P1;durP2;ratioP2;P2;SDS_P1;SDS_P2;PMS_P1;PMS_P2;Temp;Humidity;BMP_temperature;BMP_pressure;BME280_temperature;BME280_humidity;BME280_pressure;Samples;Min_cycle;Max_cycle;Signal;HPM_P1;HPM_P2
2020/12/12 00:01:22;;;;;;;2.10;1.50;;;;;;;;;;5015067;28;20205;-64
2020/12/12 00:03:48;;;;;;;2.17;2.08;;;;;;;;;;5014958;28;20520;-65
2020/12/12 00:06:20;;;;;;;1.27;1.17;;;;;;;;;;5014955;28;20174;-64
2020/12/12 00:08:46;;;;;;;0.63;0.63;;;;;;;;;;5012388;28;20548;-64
2020/12/12 00:11:12;;;;;;;2.47;2.30;;;;;;;;;;5013514;28;20264;-64
2020/12/12 00:13:38;;;;;;;2.00;1.90;;;;;;;;;;5014477;28;20468;-64
2020/12/12 00:16:06;;;;;;;2.10;1.57;;;;;;;;;;5014715;28;20179;-64
2020/12/12 00:18:32;;;;;;;1.60;1.52;;;;;;;;;;5014545;28;20450;-65
2020/12/12 00:20:58;;;;;;;1.08;1.08;;;;;;;;;;5014412;28;20641;-64
2020/12/12 00:23:24;;;;;;;1.88;1.77;;;;;;;;;;5014520;28;20197;-64
2020/12/12 00:25:51;;;;;;;1.02;1.02;;;;;;;;;;5014366;28;20169;-64
2020/12/12 00:28:17;;;;;;;1.67;1.58;;;;;;;;;;5014479;28;20178;-64
2020/12/12 00:30:43;;;;;;;0.60;0.60;;;;;;;;;;5014207;28;20208;-65
2020/12/12 00:33:09;;;;;;;2.10;2.00;;;;;;;;;;5014067;28;20471;-65
2020/12/12 00:35:35;;;;;;;2.70;2.03;;;;;;;;;;5013117;28;20503;-65
2020/12/12 00:38:01;;;;;;;3.78;2.17;;;;;;;;;;5013115;28;20916;-64
2020/12/12 00:40:27;;;;;;;1.00;1.00;;;;;;;;;;5014011;28;20233;-64
2020/12/12 00:42:53;;;;;;;0.77;0.77;;;;;;;;;;5014236;28;20468;-65
2020/12/12 00:45:19;;;;;;;1.33;1.33;;;;;;;;;;5014259;28;20184;-65
2020/12/12 00:47:45;;;;;;;1.38;1.38;;;;;;;;;;5014153;28;20484;-65
2020/12/12 00:50:11;;;;;;;2.17;2.10;;;;;;;;;;5013760;28;20264;-64
2020/12/12 00:52:37;;;;;;;1.25;1.25;;;;;;;;;;5013874;28;20615;-64
2020/12/12 00:55:03;;;;;;;2.27;2.17;;;;;;;;;;5012997;28;20680;-64
2020/12/12 00:57:29;;;;;;;1.70;1.60;;;;;;;;;;5012814;28;20419;-64
2020/12/12 00:59:55;;;;;;;2.73;2.00;;;;;;;;;;5012739;28;20549;-64
2020/12/12 01:02:21;;;;;;;1.13;1.13;;;;;;;;;;5014058;28;20410;-64
2020/12/12 01:04:47;;;;;;;3.40;1.93;;;;;;;;;;5013786;28;20964;-64
2020/12/12 01:07:13;;;;;;;0.93;0.93;;;;;;;;;;5011212;28;20466;-64
2020/12/12 01:09:39;;;;;;;0.98;0.98;;;;;;;;;;5013495;28;20179;-65
2020/12/12 01:12:05;;;;;;;3.75;1.00;;;;;;;;;;5013638;28;20650;-65
2020/12/12 01:14:31;;;;;;;3.90;2.42;;;;;;;;;;5013561;28;20241;-65
2020/12/12 01:17:01;;;;;;;1.10;1.10;;;;;;;;;;5013642;28;20174;-65
2020/12/12 01:19:27;;;;;;;0.93;0.93;;;;;;;;;;5013328;28;20175;-65
2020/12/12 01:21:56;;;;;;;1.77;1.67;;;;;;;;;;5011044;28;20647;-65
2020/12/12 01:24:22;;;;;;;0.90;0.90;;;;;;;;;;5013407;28;20300;-66
2020/12/12 01:26:48;;;;;;;1.20;1.20;;;;;;;;;;5013684;28;20194;-65
2020/12/12 01:29:14;;;;;;;1.17;1.08;;;;;;;;;;5013179;28;20995;-64
2020/12/12 01:31:41;;;;;;;0.65;0.65;;;;;;;;;;5013419;28;20179;-64
2020/12/12 01:34:07;;;;;;;1.35;1.25;;;;;;;;;;5012970;28;20202;-65
2020/12/12 01:36:33;;;;;;;0.60;0.60;;;;;;;;;;5013142;28;20553;-64
2020/12/12 01:38:59;;;;;;;0.93;0.93;;;;;;;;;;5013243;28;20173;-65
2020/12/12 01:41:25;;;;;;;0.60;0.60;;;;;;;;;;5011968;28;20178;-65
2020/12/12 01:43:51;;;;;;;1.80;1.70;;;;;;;;;;5012998;28;20434;-65
2020/12/12 01:46:21;;;;;;;1.83;1.73;;;;;;;;;;5013104;28;20166;-65
2020/12/12 01:48:48;;;;;;;0.68;0.68;;;;;;;;;;5012856;28;20183;-64
2020/12/12 01:51:14;;;;;;;0.90;0.90;;;;;;;;;;5010153;28;20180;-65
2020/12/12 01:53:40;;;;;;;1.83;1.73;;;;;;;;;;5012825;28;20678;-64
2020/12/12 01:56:06;;;;;;;1.75;1.08;;;;;;;;;;5013071;28;20220;-65
2020/12/12 01:58:32;;;;;;;1.38;1.38;;;;;;;;;;5014315;28;20169;-64
2020/12/12 02:00:59;;;;;;;2.53;2.33;;;;;;;;;;5031833;28;20165;-64
2020/12/12 02:03:26;;;;;;;0.57;0.57;;;;;;;;;;5031974;28;20209;-64
2020/12/12 02:05:53;;;;;;;1.52;1.52;;;;;;;;;;5025934;28;20182;-65
2020/12/12 02:08:19;;;;;;;0.95;0.95;;;;;;;;;;5021786;28;20218;-65
2020/12/12 02:10:47;;;;;;;1.13;1.13;;;;;;;;;;5012487;28;20182;-65
2020/12/12 02:13:13;;;;;;;1.70;1.60;;;;;;;;;;5012486;28;20241;-65
2020/12/12 02:15:40;;;;;;;1.33;1.33;;;;;;;;;;5012748;28;20170;-64
2020/12/12 02:18:06;;;;;;;1.80;1.77;;;;;;;;;;5012484;28;20178;-65
2020/12/12 02:20:33;;;;;;;1.40;1.33;;;;;;;;;;5012171;28;20176;-65
2020/12/12 02:22:59;;;;;;;1.13;0.90;;;;;;;;;;5012448;28;20558;-65
2020/12/12 02:25:25;;;;;;;2.53;2.42;;;;;;;;;;5012376;28;20183;-65
2020/12/12 02:27:53;;;;;;;1.60;1.50;;;;;;;;;;5012376;28;20174;-65
2020/12/12 02:30:19;;;;;;;1.10;1.10;;;;;;;;;;5012097;28;20173;-65
2020/12/12 02:32:45;;;;;;;0.80;0.80;;;;;;;;;;5011556;28;20202;-65
2020/12/12 02:35:11;;;;;;;2.45;2.28;;;;;;;;;;5012256;28;20170;-64
2020/12/12 02:37:37;;;;;;;1.00;1.00;;;;;;;;;;5012277;28;20177;-65
2020/12/12 02:40:06;;;;;;;1.33;1.33;;;;;;;;;;5011912;28;20174;-65
2020/12/12 02:42:32;;;;;;;1.27;1.20;;;;;;;;;;5011948;28;20497;-65
2020/12/12 02:44:58;;;;;;;1.42;1.40;;;;;;;;;;5012260;28;20183;-65
2020/12/12 02:47:24;;;;;;;1.50;1.50;;;;;;;;;;5010905;28;20165;-65
2020/12/12 02:50:11;;;;;;;0.90;0.90;;;;;;;;;;5011717;28;20178;-65
2020/12/12 02:52:41;;;;;;;1.10;1.02;;;;;;;;;;5009841;28;20189;-66
2020/12/12 02:55:08;;;;;;;2.08;1.98;;;;;;;;;;5012054;28;20197;-65
2020/12/12 02:57:35;;;;;;;1.17;1.17;;;;;;;;;;5012087;28;20170;-65
2020/12/12 03:00:01;;;;;;;1.25;1.23;;;;;;;;;;5011684;28;20253;-65
2020/12/12 03:02:27;;;;;;;1.50;1.48;;;;;;;;;;5011483;28;20273;-65
2020/12/12 03:04:53;;;;;;;2.17;1.58;;;;;;;;;;5011852;28;20222;-65
2020/12/12 03:07:19;;;;;;;1.95;1.73;;;;;;;;;;5011741;28;20231;-65
2020/12/12 03:09:46;;;;;;;1.23;1.23;;;;;;;;;;5011476;28;20170;-65
2020/12/12 03:12:12;;;;;;;1.17;1.17;;;;;;;;;;5011405;28;20170;-65
2020/12/12 03:14:38;;;;;;;2.05;1.40;;;;;;;;;;5011527;28;20194;-65
2020/12/12 03:17:09;;;;;;;0.60;0.60;;;;;;;;;;5010144;28;20178;-65
2020/12/12 03:19:35;;;;;;;1.00;1.00;;;;;;;;;;5011210;28;20174;-65
2020/12/12 03:22:01;;;;;;;1.00;1.00;;;;;;;;;;5011545;28;20583;-65
2020/12/12 03:24:27;;;;;;;1.47;1.37;;;;;;;;;;5011424;28;20436;-65
2020/12/12 03:26:53;;;;;;;0.60;0.60;;;;;;;;;;5011349;28;20500;-65
2020/12/12 03:29:19;;;;;;;1.67;1.57;;;;;;;;;;5011224;28;20420;-65
2020/12/12 03:31:45;;;;;;;1.70;1.60;;;;;;;;;;5011371;28;20464;-65
2020/12/12 03:34:11;;;;;;;0.82;0.82;;;;;;;;;;5011013;28;20464;-65
2020/12/12 03:36:36;;;;;;;0.70;0.70;;;;;;;;;;5011363;28;20171;-64
2020/12/12 03:39:03;;;;;;;1.40;1.20;;;;;;;;;;5011170;28;20201;-65
2020/12/12 03:41:29;;;;;;;1.48;1.48;;;;;;;;;;5011350;28;20191;-65
2020/12/12 03:43:55;;;;;;;0.50;0.50;;;;;;;;;;5011242;28;20286;-65
2020/12/12 03:46:21;;;;;;;0.93;0.93;;;;;;;;;;5010041;28;20287;-65
2020/12/12 03:48:47;;;;;;;1.33;1.05;;;;;;;;;;5011123;28;20888;-65
2020/12/12 03:51:13;;;;;;;0.75;0.75;;;;;;;;;;5011195;28;20191;-65
2020/12/12 03:53:39;;;;;;;1.75;1.65;;;;;;;;;;5010056;28;20288;-66
2020/12/12 03:56:05;;;;;;;0.70;0.70;;;;;;;;;;5010849;28;20218;-66
2020/12/12 03:58:31;;;;;;;2.47;2.28;;;;;;;;;;5009698;28;20180;-65
2020/12/12 04:00:57;;;;;;;1.23;1.15;;;;;;;;;;5010889;28;20177;-66
2020/12/12 04:03:23;;;;;;;1.35;1.02;;;;;;;;;;5009857;28;20415;-64
2020/12/12 04:05:49;;;;;;;1.77;1.75;;;;;;;;;;5011288;28;20221;-65
2020/12/12 04:08:15;;;;;;;0.98;0.95;;;;;;;;;;5011154;28;20739;-64
2020/12/12 04:10:41;;;;;;;1.63;1.52;;;;;;;;;;5010901;28;20252;-64
2020/12/12 04:13:08;;;;;;;2.13;2.03;;;;;;;;;;5010867;28;20241;-64
2020/12/12 04:15:34;;;;;;;1.67;1.58;;;;;;;;;;5011000;28;20770;-65
2020/12/12 04:18:00;;;;;;;3.33;1.90;;;;;;;;;;5010964;28;20174;-65
2020/12/12 04:20:26;;;;;;;0.60;0.60;;;;;;;;;;5010782;28;20225;-65
2020/12/12 04:22:52;;;;;;;2.90;2.80;;;;;;;;;;5010818;28;20202;-65
2020/12/12 04:25:18;;;;;;;1.95;1.83;;;;;;;;;;5024118;22;20503;-65
2020/12/12 04:27:44;;;;;;;1.20;1.20;;;;;;;;;;5003501;28;20190;-64
2020/12/12 04:30:10;;;;;;;1.25;1.25;;;;;;;;;;4999371;28;20691;-65
2020/12/12 04:32:36;;;;;;;1.45;1.45;;;;;;;;;;5013961;28;20381;-64
2020/12/12 04:35:02;;;;;;;0.68;0.68;;;;;;;;;;5013753;28;20221;-65
2020/12/12 04:37:28;;;;;;;1.75;1.45;;;;;;;;;;5014555;28;20413;-64
2020/12/12 04:39:54;;;;;;;1.45;1.45;;;;;;;;;;5014532;28;20166;-65
2020/12/12 04:42:21;;;;;;;0.70;0.70;;;;;;;;;;5014493;28;20183;-65
2020/12/12 04:44:47;;;;;;;0.73;0.73;;;;;;;;;;5014846;28;20194;-66
2020/12/12 04:47:14;;;;;;;1.23;1.23;;;;;;;;;;5014529;28;20514;-64
2020/12/12 04:49:40;;;;;;;0.60;0.60;;;;;;;;;;5014259;28;20170;-65
2020/12/12 04:52:06;;;;;;;1.55;1.45;;;;;;;;;;5014474;28;20178;-64
2020/12/12 04:54:34;;;;;;;1.95;1.25;;;;;;;;;;5014220;28;20585;-64
2020/12/12 04:57:03;;;;;;;1.45;1.35;;;;;;;;;;5014284;28;20220;-65
2020/12/12 04:59:33;;;;;;;0.93;0.93;;;;;;;;;;5014074;28;20193;-64
2020/12/12 05:02:00;;;;;;;0.80;0.80;;;;;;;;;;5014446;28;20453;-65
2020/12/12 05:04:26;;;;;;;1.15;1.15;;;;;;;;;;5014158;28;20678;-66
2020/12/12 05:06:52;;;;;;;0.70;0.70;;;;;;;;;;5014436;28;20189;-66
2020/12/12 05:09:18;;;;;;;2.13;1.98;;;;;;;;;;5013923;28;20244;-66
2020/12/12 05:11:46;;;;;;;1.02;1.02;;;;;;;;;;5014202;28;20187;-65
2020/12/12 05:14:14;;;;;;;0.90;0.90;;;;;;;;;;5014127;28;20590;-65
2020/12/12 05:16:40;;;;;;;1.60;1.50;;;;;;;;;;5014165;28;20228;-65
2020/12/12 05:19:07;;;;;;;1.30;1.30;;;;;;;;;;5013897;28;20532;-66
2020/12/12 05:21:33;;;;;;;1.17;0.73;;;;;;;;;;5013937;28;20181;-66
2020/12/12 05:24:00;;;;;;;1.42;1.42;;;;;;;;;;5013645;28;20324;-66
2020/12/12 05:26:28;;;;;;;1.60;1.60;;;;;;;;;;5013807;28;20191;-66
2020/12/12 05:28:58;;;;;;;1.35;1.35;;;;;;;;;;5013580;28;20253;-65
2020/12/12 05:31:24;;;;;;;1.30;1.20;;;;;;;;;;5013961;28;20195;-65
2020/12/12 05:33:50;;;;;;;2.65;1.13;;;;;;;;;;5013658;28;20606;-66
2020/12/12 05:36:16;;;;;;;0.90;0.90;;;;;;;;;;5013807;28;20208;-67
2020/12/12 05:38:42;;;;;;;0.93;0.93;;;;;;;;;;5012184;28;20185;-66
2020/12/12 05:41:08;;;;;;;1.00;1.00;;;;;;;;;;5013487;28;20409;-66
2020/12/12 05:43:36;;;;;;;0.50;0.50;;;;;;;;;;5013194;28;20459;-66
2020/12/12 05:46:02;;;;;;;0.73;0.73;;;;;;;;;;5013290;28;20181;-64
2020/12/12 05:48:28;;;;;;;2.47;1.95;;;;;;;;;;5013299;28;20186;-64
2020/12/12 05:50:54;;;;;;;2.13;2.05;;;;;;;;;;5013328;28;20180;-64
2020/12/12 05:53:20;;;;;;;1.63;1.52;;;;;;;;;;5013663;28;20209;-64
2020/12/12 05:55:46;;;;;;;2.17;1.23;;;;;;;;;;5013527;28;20269;-64
2020/12/12 05:58:15;;;;;;;1.17;1.17;;;;;;;;;;5013260;28;20260;-64
2020/12/12 06:00:42;;;;;;;1.50;1.40;;;;;;;;;;5012813;28;20235;-66
2020/12/12 06:03:38;;;;;;;0.68;0.68;;;;;;;;;;5013142;28;20171;-65
2020/12/12 06:06:05;;;;;;;1.00;1.00;;;;;;;;;;5008659;28;20199;-67
2020/12/12 06:08:38;;;;;;;0.50;0.50;;;;;;;;;;5011695;28;20173;-66
2020/12/12 06:11:05;;;;;;;0.98;0.98;;;;;;;;;;5012860;28;20178;-67
2020/12/12 06:13:34;;;;;;;0.63;0.63;;;;;;;;;;5012710;28;20225;-64
2020/12/12 06:16:02;;;;;;;1.27;1.27;;;;;;;;;;5012992;28;20817;-64
2020/12/12 06:18:47;;;;;;;1.15;0.80;;;;;;;;;;5012853;28;20251;-65
2020/12/12 06:21:13;;;;;;;1.35;1.35;;;;;;;;;;4998754;28;20198;-65
2020/12/12 06:23:39;;;;;;;0.93;0.93;;;;;;;;;;4992893;28;20430;-64
2020/12/12 06:26:10;;;;;;;0.85;0.85;;;;;;;;;;4992905;28;20425;-66
2020/12/12 06:28:41;;;;;;;0.80;0.80;;;;;;;;;;4992700;28;20183;-65
2020/12/12 06:31:07;;;;;;;0.65;0.65;;;;;;;;;;4992732;28;20174;-65
2020/12/12 06:33:47;;;;;;;1.10;1.10;;;;;;;;;;4992536;28;20213;-64
2020/12/12 06:36:42;;;;;;;1.05;1.05;;;;;;;;;;4991409;28;20221;-64
2020/12/12 06:39:14;;;;;;;2.03;1.92;;;;;;;;;;4987906;28;20684;-64
2020/12/12 06:41:40;;;;;;;0.80;0.80;;;;;;;;;;4993322;28;20223;-65
2020/12/12 06:44:06;;;;;;;0.50;0.50;;;;;;;;;;4992737;28;20194;-65
2020/12/12 06:46:52;;;;;;;1.45;1.45;;;;;;;;;;4992750;28;20897;-65
2020/12/12 06:49:18;;;;;;;0.50;0.50;;;;;;;;;;4992436;28;20177;-66
2020/12/12 06:51:44;;;;;;;1.17;1.17;;;;;;;;;;4992674;28;20171;-65
2020/12/12 06:54:10;;;;;;;0.60;0.60;;;;;;;;;;4992023;28;20208;-65
2020/12/12 06:56:36;;;;;;;1.20;0.80;;;;;;;;;;4992901;28;20167;-65
2020/12/12 06:59:20;;;;;;;0.82;0.80;;;;;;;;;;4992251;28;20177;-66
2020/12/12 07:01:59;;;;;;;1.25;0.95;;;;;;;;;;4992406;28;20707;-65
2020/12/12 07:04:27;;;;;;;1.08;1.08;;;;;;;;;;4992447;28;20198;-64
2020/12/12 07:06:57;;;;;;;0.55;0.55;;;;;;;;;;4992430;28;20546;-64
2020/12/12 07:09:25;;;;;;;0.85;0.85;;;;;;;;;;4992262;28;20186;-64
2020/12/12 07:11:51;;;;;;;1.17;1.17;;;;;;;;;;4990865;28;20194;-66
2020/12/12 07:14:18;;;;;;;1.25;1.13;;;;;;;;;;4991813;28;20202;-65
2020/12/12 07:16:44;;;;;;;2.70;2.00;;;;;;;;;;4991747;28;20256;-65
2020/12/12 07:19:11;;;;;;;0.52;0.52;;;;;;;;;;4991441;28;20179;-65
2020/12/12 07:21:40;;;;;;;0.52;0.52;;;;;;;;;;4991989;28;20252;-64
2020/12/12 07:24:06;;;;;;;1.70;1.60;;;;;;;;;;4991593;28;20246;-66
2020/12/12 07:26:33;;;;;;;0.70;0.70;;;;;;;;;;4991954;28;20175;-65
2020/12/12 07:28:59;;;;;;;0.95;0.95;;;;;;;;;;4991226;28;20218;-66
2020/12/12 07:31:26;;;;;;;1.63;1.52;;;;;;;;;;4991863;28;20178;-66
2020/12/12 07:33:52;;;;;;;1.08;1.08;;;;;;;;;;4991714;28;20206;-66
2020/12/12 07:36:18;;;;;;;0.70;0.70;;;;;;;;;;4991585;28;20172;-65
2020/12/12 07:38:44;;;;;;;0.68;0.68;;;;;;;;;;4991592;28;20539;-62
2020/12/12 07:41:11;;;;;;;2.20;1.77;;;;;;;;;;4991194;28;20200;-64
2020/12/12 07:43:48;;;;;;;0.60;0.60;;;;;;;;;;4991622;28;20182;-64
2020/12/12 07:46:14;;;;;;;0.70;0.70;;;;;;;;;;4991610;28;20222;-64
2020/12/12 07:48:40;;;;;;;1.02;1.02;;;;;;;;;;4991404;28;20273;-65
2020/12/12 07:51:13;;;;;;;2.40;0.90;;;;;;;;;;4991228;28;20216;-65
2020/12/12 07:53:39;;;;;;;1.25;1.15;;;;;;;;;;4991441;28;20195;-64
2020/12/12 07:56:06;;;;;;;1.20;1.20;;;;;;;;;;4990305;28;20182;-65
2020/12/12 07:58:35;;;;;;;0.90;0.90;;;;;;;;;;4991564;28;20198;-64
2020/12/12 08:01:04;;;;;;;0.60;0.60;;;;;;;;;;4991356;28;20605;-64
2020/12/12 08:03:30;;;;;;;1.05;1.05;;;;;;;;;;4991248;28;20180;-64
2020/12/12 08:06:09;;;;;;;1.40;1.30;;;;;;;;;;4993582;28;20202;-63
2020/12/12 08:08:35;;;;;;;1.05;1.00;;;;;;;;;;5013040;28;20573;-65
2020/12/12 08:11:02;;;;;;;0.60;0.60;;;;;;;;;;5009792;28;20187;-65
2020/12/12 08:13:28;;;;;;;0.70;0.70;;;;;;;;;;4994496;28;20293;-66
2020/12/12 08:16:37;;;;;;;0.80;0.80;;;;;;;;;;4995131;28;20237;-62
2020/12/12 08:19:06;;;;;;;2.00;1.92;;;;;;;;;;4994509;28;20178;-64
2020/12/12 08:21:33;;;;;;;1.33;1.33;;;;;;;;;;4995055;28;20226;-65
2020/12/12 08:24:00;;;;;;;1.95;1.85;;;;;;;;;;4994489;28;20573;-64
2020/12/12 08:26:26;;;;;;;1.30;1.30;;;;;;;;;;4994994;28;20229;-63
2020/12/12 08:28:52;;;;;;;0.45;0.45;;;;;;;;;;4994923;28;20182;-64
2020/12/12 08:31:22;;;;;;;1.30;1.20;;;;;;;;;;4995266;28;20235;-64
2020/12/12 08:33:53;;;;;;;1.20;1.20;;;;;;;;;;4995059;28;20206;-67
2020/12/12 08:36:20;;;;;;;0.98;0.98;;;;;;;;;;4994209;28;20194;-66
2020/12/12 08:39:12;;;;;;;2.55;2.35;;;;;;;;;;4994687;28;20186;-65
2020/12/12 08:41:40;;;;;;;1.05;1.05;;;;;;;;;;4994366;28;20192;-65
2020/12/12 08:44:07;;;;;;;1.25;1.15;;;;;;;;;;4994627;28;20198;-65
2020/12/12 08:46:34;;;;;;;0.70;0.70;;;;;;;;;;4994289;28;20266;-66
2020/12/12 08:49:00;;;;;;;0.90;0.90;;;;;;;;;;4993457;28;20269;-66
2020/12/12 08:51:32;;;;;;;0.98;0.98;;;;;;;;;;4993960;28;20182;-65
2020/12/12 08:53:58;;;;;;;1.02;1.02;;;;;;;;;;4994314;28;20686;-65
2020/12/12 08:56:29;;;;;;;1.48;1.38;;;;;;;;;;4994100;28;20170;-65
2020/12/12 08:58:58;;;;;;;1.25;1.25;;;;;;;;;;4993506;28;20179;-66
2020/12/12 09:01:42;;;;;;;1.00;1.00;;;;;;;;;;4994043;28;20180;-66
2020/12/12 09:04:13;;;;;;;3.70;2.25;;;;;;;;;;4993992;28;20195;-64
2020/12/12 09:06:42;;;;;;;0.80;0.80;;;;;;;;;;4994417;28;20184;-65
2020/12/12 09:09:20;;;;;;;0.80;0.80;;;;;;;;;;4993344;28;20555;-65
2020/12/12 09:12:08;;;;;;;0.47;0.47;;;;;;;;;;4994048;28;20175;-65
2020/12/12 09:14:34;;;;;;;0.50;0.50;;;;;;;;;;4993734;28;20223;-65
2020/12/12 09:17:10;;;;;;;0.80;0.80;;;;;;;;;;4993218;28;20197;-65
2020/12/12 09:19:36;;;;;;;0.80;0.80;;;;;;;;;;4993571;28;20174;-66
2020/12/12 09:22:05;;;;;;;0.60;0.60;;;;;;;;;;4993319;28;20601;-66
2020/12/12 09:24:31;;;;;;;0.50;0.50;;;;;;;;;;4993649;28;20223;-65
2020/12/12 09:26:58;;;;;;;0.77;0.77;;;;;;;;;;4993328;28;20184;-64
2020/12/12 09:29:25;;;;;;;1.92;1.83;;;;;;;;;;4992819;28;20180;-65
2020/12/12 09:31:51;;;;;;;0.80;0.80;;;;;;;;;;4990100;28;20461;-63
2020/12/12 09:34:18;;;;;;;1.67;1.40;;;;;;;;;;4993061;28;20206;-65
2020/12/12 09:36:44;;;;;;;1.67;1.67;;;;;;;;;;4994155;28;20500;-65
2020/12/12 09:39:11;;;;;;;0.80;0.80;;;;;;;;;;4992953;28;20302;-66
2020/12/12 09:41:37;;;;;;;0.68;0.68;;;;;;;;;;4993611;28;20172;-66
2020/12/12 09:44:03;;;;;;;0.60;0.60;;;;;;;;;;4993130;28;20206;-66
2020/12/12 09:46:29;;;;;;;0.77;0.77;;;;;;;;;;4993483;28;20181;-65
2020/12/12 09:48:55;;;;;;;0.93;0.93;;;;;;;;;;4993312;28;20180;-65
2020/12/12 09:51:22;;;;;;;0.85;0.85;;;;;;;;;;4992353;28;20179;-65
2020/12/12 09:53:48;;;;;;;0.93;0.93;;;;;;;;;;4997985;28;20201;-65
2020/12/12 09:56:17;;;;;;;1.13;1.10;;;;;;;;;;5003568;28;20181;-65
2020/12/12 09:58:43;;;;;;;1.33;1.27;;;;;;;;;;4995730;28;20191;-62
2020/12/12 10:01:10;;;;;;;1.27;1.25;;;;;;;;;;4999810;28;20230;-65
2020/12/12 10:03:36;;;;;;;1.05;1.02;;;;;;;;;;4995685;28;20661;-65
2020/12/12 10:06:02;;;;;;;0.60;0.60;;;;;;;;;;4992946;28;20651;-65
2020/12/12 10:08:28;;;;;;;0.93;0.77;;;;;;;;;;4992858;28;20219;-65
2020/12/12 10:10:54;;;;;;;0.60;0.60;;;;;;;;;;4992722;28;20261;-64
2020/12/12 10:13:20;;;;;;;0.75;0.75;;;;;;;;;;4992737;28;20536;-65
2020/12/12 10:15:47;;;;;;;0.70;0.70;;;;;;;;;;4990903;28;20225;-63
2020/12/12 10:18:13;;;;;;;0.75;0.75;;;;;;;;;;4992745;28;20535;-64
2020/12/12 10:20:39;;;;;;;1.50;1.50;;;;;;;;;;4996387;28;20264;-64
2020/12/12 10:23:06;;;;;;;0.70;0.70;;;;;;;;;;4993019;28;20218;-65
2020/12/12 10:25:32;;;;;;;0.50;0.50;;;;;;;;;;5026130;22;20233;-65
2020/12/12 10:27:58;;;;;;;0.70;0.70;;;;;;;;;;5029416;28;20396;-65
2020/12/12 10:30:24;;;;;;;1.27;1.27;;;;;;;;;;5029278;28;20633;-65
2020/12/12 10:32:51;;;;;;;0.65;0.65;;;;;;;;;;5031837;28;20196;-65
2020/12/12 10:35:17;;;;;;;1.17;1.17;;;;;;;;;;5031461;28;20194;-65
2020/12/12 10:37:43;;;;;;;0.85;0.85;;;;;;;;;;5031330;28;20268;-65
2020/12/12 10:42:35;;;;;;;0.50;0.50;;;;;;;;;;5031709;28;20197;-64
2020/12/12 10:45:01;;;;;;;0.90;0.90;;;;;;;;;;5031157;28;20246;-65
2020/12/12 10:47:27;;;;;;;0.50;0.50;;;;;;;;;;5031598;28;20252;-65
2020/12/12 10:49:53;;;;;;;0.70;0.70;;;;;;;;;;5046017;28;20751;-65
2020/12/12 10:52:21;;;;;;;0.70;0.70;;;;;;;;;;5031121;28;20171;-64
2020/12/12 10:54:47;;;;;;;0.50;0.50;;;;;;;;;;5031285;28;20541;-65
2020/12/12 10:57:14;;;;;;;0.55;0.55;;;;;;;;;;5031631;28;20170;-65
2020/12/12 10:59:42;;;;;;;1.15;1.15;;;;;;;;;;5031183;28;20172;-64
2020/12/12 11:02:10;;;;;;;1.80;1.05;;;;;;;;;;5030916;28;20618;-64
2020/12/12 11:04:36;;;;;;;0.50;0.50;;;;;;;;;;5030043;28;20214;-65
2020/12/12 11:07:02;;;;;;;0.60;0.60;;;;;;;;;;5031219;28;20282;-65
2020/12/12 11:09:28;;;;;;;2.75;1.80;;;;;;;;;;5031065;28;20234;-65
2020/12/12 11:11:54;;;;;;;0.67;0.67;;;;;;;;;;5030815;28;20241;-65
2020/12/12 11:14:20;;;;;;;1.13;1.13;;;;;;;;;;5031130;28;20515;-65
2020/12/12 11:16:46;;;;;;;0.77;0.77;;;;;;;;;;5030756;28;20933;-65
2020/12/12 11:19:12;;;;;;;0.73;0.73;;;;;;;;;;5030919;28;20175;-65
2020/12/12 11:21:40;;;;;;;0.87;0.87;;;;;;;;;;5031180;28;20754;-65
2020/12/12 11:24:06;;;;;;;1.10;1.10;;;;;;;;;;5030688;28;20415;-64
2020/12/12 11:26:32;;;;;;;0.47;0.47;;;;;;;;;;5030894;28;20264;-65
2020/12/12 11:28:58;;;;;;;0.70;0.70;;;;;;;;;;5030506;28;20283;-64
2020/12/12 11:31:25;;;;;;;1.15;1.15;;;;;;;;;;5031043;28;20663;-65
2020/12/12 11:33:58;;;;;;;0.60;0.60;;;;;;;;;;5030257;28;20574;-65
2020/12/12 11:36:40;;;;;;;3.17;1.60;;;;;;;;;;5030562;28;20202;-65
2020/12/12 11:39:32;;;;;;;0.82;0.82;;;;;;;;;;5029602;28;20191;-65
2020/12/12 11:42:09;;;;;;;1.00;1.00;;;;;;;;;;5014692;28;20670;-65
2020/12/12 11:47:08;;;;;;;0.60;0.60;;;;;;;;;;5014686;28;20545;-65
2020/12/12 11:49:34;;;;;;;1.08;1.08;;;;;;;;;;5044882;28;20190;-65
2020/12/12 11:52:00;;;;;;;0.40;0.40;;;;;;;;;;5033628;28;20184;-65
2020/12/12 11:54:27;;;;;;;1.58;1.48;;;;;;;;;;5034935;28;20213;-65
2020/12/12 11:56:53;;;;;;;0.60;0.60;;;;;;;;;;5034345;28;20664;-65
2020/12/12 11:59:19;;;;;;;0.50;0.50;;;;;;;;;;5034604;28;20230;-65
2020/12/12 12:01:45;;;;;;;1.70;1.60;;;;;;;;;;5034634;28;20797;-65
2020/12/12 12:04:11;;;;;;;1.93;1.50;;;;;;;;;;5034398;28;20184;-65
2020/12/12 12:06:37;;;;;;;0.93;0.93;;;;;;;;;;5034039;28;20719;-65
2020/12/12 12:11:33;;;;;;;0.73;0.73;;;;;;;;;;5034621;28;20183;-65
2020/12/12 12:14:00;;;;;;;0.88;0.75;;;;;;;;;;5034289;28;20630;-64
2020/12/12 12:16:27;;;;;;;1.55;1.45;;;;;;;;;;5034111;28;20237;-64
2020/12/12 12:18:53;;;;;;;1.25;1.15;;;;;;;;;;5035564;28;20545;-65
2020/12/12 12:21:19;;;;;;;1.00;0.98;;;;;;;;;;5033003;28;20597;-63
2020/12/12 12:23:45;;;;;;;1.45;1.45;;;;;;;;;;5033052;28;20218;-65
2020/12/12 12:26:13;;;;;;;1.08;1.08;;;;;;;;;;5033338;28;20227;-65
2020/12/12 12:28:40;;;;;;;0.60;0.60;;;;;;;;;;5029888;28;20198;-64
2020/12/12 12:31:06;;;;;;;2.25;1.30;;;;;;;;;;5032451;28;20199;-65
2020/12/12 12:33:31;;;;;;;1.97;1.87;;;;;;;;;;5033814;28;20203;-65
2020/12/12 12:35:57;;;;;;;0.50;0.50;;;;;;;;;;5033329;28;20426;-65
2020/12/12 12:38:23;;;;;;;0.77;0.77;;;;;;;;;;5033784;28;20403;-66
2020/12/12 12:40:50;;;;;;;2.28;1.30;;;;;;;;;;5033125;28;20762;-65
2020/12/12 12:43:16;;;;;;;1.25;1.02;;;;;;;;;;5035662;28;20178;-65
2020/12/12 12:45:42;;;;;;;0.85;0.85;;;;;;;;;;5035148;28;20230;-65
2020/12/12 12:48:08;;;;;;;1.00;1.00;;;;;;;;;;5034445;28;20263;-65
2020/12/12 12:50:35;;;;;;;1.58;1.48;;;;;;;;;;5032874;28;20669;-65
2020/12/12 12:53:05;;;;;;;1.02;0.95;;;;;;;;;;5032321;28;20571;-65
2020/12/12 12:55:31;;;;;;;1.40;1.40;;;;;;;;;;5034477;28;20281;-65
2020/12/12 12:57:58;;;;;;;0.70;0.70;;;;;;;;;;5033414;28;20184;-65
2020/12/12 13:00:24;;;;;;;1.13;1.02;;;;;;;;;;5033067;28;20165;-65
2020/12/12 13:02:50;;;;;;;1.45;1.35;;;;;;;;;;5033036;28;20179;-65
2020/12/12 13:05:16;;;;;;;1.80;1.47;;;;;;;;;;5032355;28;20218;-65
2020/12/12 13:07:42;;;;;;;1.23;1.23;;;;;;;;;;5032979;28;20938;-66
2020/12/12 13:10:08;;;;;;;0.85;0.85;;;;;;;;;;5032774;28;20183;-65
2020/12/12 13:12:34;;;;;;;1.25;0.90;;;;;;;;;;5030171;28;20243;-65
2020/12/12 13:15:00;;;;;;;0.90;0.90;;;;;;;;;;5032295;28;20303;-65
2020/12/12 13:17:26;;;;;;;1.60;1.08;;;;;;;;;;5032539;28;20408;-65
2020/12/12 13:20:03;;;;;;;1.38;1.27;;;;;;;;;;5032515;28;20587;-65
2020/12/12 13:22:29;;;;;;;1.08;1.08;;;;;;;;;;5032923;28;20178;-65
2020/12/12 13:24:55;;;;;;;1.07;1.07;;;;;;;;;;5032901;28;20175;-65
2020/12/12 13:27:21;;;;;;;0.90;0.90;;;;;;;;;;5032156;28;20841;-65
2020/12/12 13:32:28;;;;;;;0.80;0.80;;;;;;;;;;5032065;28;20188;-64
2020/12/12 13:34:54;;;;;;;2.67;0.75;;;;;;;;;;5032518;28;20578;-65
2020/12/12 13:37:21;;;;;;;0.95;0.95;;;;;;;;;;5032082;28;20250;-64
2020/12/12 13:39:47;;;;;;;0.90;0.90;;;;;;;;;;5032418;28;20168;-65
2020/12/12 13:42:13;;;;;;;2.05;0.90;;;;;;;;;;5032136;28;20667;-66
2020/12/12 13:44:40;;;;;;;1.15;1.15;;;;;;;;;;5033708;28;20235;-65
2020/12/12 13:47:06;;;;;;;1.10;0.90;;;;;;;;;;5045128;28;20187;-65
2020/12/12 13:49:32;;;;;;;0.85;0.85;;;;;;;;;;5043738;28;20187;-65
2020/12/12 13:51:58;;;;;;;1.60;1.20;;;;;;;;;;5042427;28;20192;-65
2020/12/12 13:54:24;;;;;;;1.42;1.38;;;;;;;;;;5039841;28;20488;-66
2020/12/12 13:56:53;;;;;;;0.70;0.70;;;;;;;;;;5032529;28;20200;-65
2020/12/12 13:59:19;;;;;;;0.93;0.93;;;;;;;;;;5031902;28;20770;-65
2020/12/12 14:01:49;;;;;;;2.60;2.08;;;;;;;;;;5032125;28;20195;-65
2020/12/12 14:04:15;;;;;;;1.05;1.05;;;;;;;;;;5029235;28;20172;-66
2020/12/12 14:06:46;;;;;;;0.80;0.80;;;;;;;;;;5031707;28;20275;-65
2020/12/12 14:23:12;;;;;;;1.63;1.48;;;;;;;;;;5031056;28;20180;-65
2020/12/12 14:28:25;;;;;;;1.42;1.38;;;;;;;;;;5030132;28;20913;-64
2020/12/12 14:30:52;;;;;;;0.80;0.80;;;;;;;;;;5031121;28;20663;-65
2020/12/12 14:33:18;;;;;;;1.48;1.45;;;;;;;;;;5030979;28;20247;-64
2020/12/12 14:35:44;;;;;;;1.02;1.02;;;;;;;;;;5031260;28;20768;-65
2020/12/12 14:38:10;;;;;;;0.60;0.60;;;;;;;;;;5031251;28;20182;-64
2020/12/12 14:40:36;;;;;;;0.75;0.75;;;;;;;;;;5031026;28;20206;-65
2020/12/12 14:43:02;;;;;;;0.68;0.68;;;;;;;;;;5031018;28;20183;-65
2020/12/12 14:45:29;;;;;;;2.17;1.98;;;;;;;;;;5030419;28;20666;-64
2020/12/12 14:47:55;;;;;;;1.20;1.10;;;;;;;;;;5031144;28;20257;-64
2020/12/12 14:50:21;;;;;;;0.80;0.80;;;;;;;;;;5030535;28;20173;-64
2020/12/12 14:52:47;;;;;;;1.60;1.50;;;;;;;;;;5030914;28;20239;-65
2020/12/12 14:55:13;;;;;;;1.27;1.27;;;;;;;;;;5030147;28;20672;-65
2020/12/12 14:57:41;;;;;;;1.73;1.58;;;;;;;;;;5030775;28;20236;-65
2020/12/12 15:00:08;;;;;;;1.50;1.45;;;;;;;;;;5030874;28;20677;-64
2020/12/12 15:02:34;;;;;;;2.10;1.95;;;;;;;;;;5031165;28;20176;-64
2020/12/12 15:05:00;;;;;;;1.33;1.33;;;;;;;;;;5031200;28;20176;-65
2020/12/12 15:07:26;;;;;;;2.20;1.85;;;;;;;;;;5030717;28;20203;-64
2020/12/12 15:09:52;;;;;;;1.25;1.15;;;;;;;;;;5030806;28;20175;-65
2020/12/12 15:12:18;;;;;;;1.13;1.13;;;;;;;;;;5031130;28;20238;-64